Manitowoc, WI

2:40 PM CST on March 02, 2015 (GMT -0600)
Western Shore of Lake Michigan | Change Station
CLOSE
Current Station
Personal Weather Station
Location: Manitowoc, WI
Elevation: 639 ft
Nearby Weather Stations
Active Advisory: Winter Weather Advisory

Elev 639 ft 44.11 °N, 87.67 °W | Updated 11 seconds ago

Clear
Clear
35.8 °F
Feels Like 36 °F
N
0.0
Wind Variable Wind from West
Gusts 5.3 mph

Today
High -- | Low -- °F
--% Chance of Precip.
Yesterday
High -- | Low -- °F
Precip. -- in
6:26 AM 5:40 PM
Waxing Gibbous, 93% visible
Pressure 30.52 in
Visibility 10.0 miles
Clouds Clear
Windchill 36 °F
Dew Point 15 °F
Humidity 42%
Rainfall 0.00 in
Snow Depth Not available.
UV 3 out of 12
Pollen .30 out of 12
Air Quality Not available.
Flu Activity Not available.
METAR KMTW 021956Z AUTO 27005KT 10SM CLR M01/M12 A3044 RMK AO2 SLP333 T10061117 FZRANO

More Conditions Fewer Conditions

Pressure 30.52 in
Visibility 10.0 miles
Clouds Clear
Windchill 36 °F
Dew Point 15 °F
Humidity 42%
Rainfall 0.00 in
Snow Depth Not available.
UV 3 out of 12
Pollen .30 out of 12
Air Quality Not available.
Flu Activity Not available.
METAR KMTW 021956Z AUTO 27005KT 10SM CLR M01/M12 A3044 RMK AO2 SLP333 T10061117 FZRANO

More Conditions Fewer Conditions

10-Day Weather Forecast

Almanac

Astronomy

Mar. 02, 2015 Rise Set
Actual Time
Civil Twilight
Nautical Twilight
Astronomical Twilight
Moon
Length of Visible Light
Length of Day
Tomorrow will be .
, % of the Moon is Illuminated

Today's Extremes

State Highs State Lows

Community

WunderPhotos

Upload Photos

1,801,941 photos uploaded!

WunderBlogs® & News

Nearby

Air Quality

  Air Quality AQ Index Pollutant
Not available.

Snow Depth

Station Depth Elevation

Earthquake Activity

City Distance Mag. Time & Date
Minimum magnitude displayed is 2.5.

Coastal Water Temperatures

Place Temperature

Nearby Weather Stations

Winter Weather Advisory
Statement as of 12:17 PM CST on March 02, 2015

... Winter Weather Advisory remains in effect from 3 am to 6 PM
CST Tuesday...

* snow is expected to develop late tonight... then increase in
intensity Tuesday morning. The snow is expected to taper off
later in the afternoon.

* Snow accumulations of 3 to 5 inches are anticipated.

* Travel conditions may become hazardous due to snow covered
roads and reduced visibility. Travel will likely be impacted
for both the morning and afternoon commutes.

Precautionary/preparedness actions...

A Winter Weather Advisory for snow means that periods of snow
will cause some travel difficulties. Be prepared for snow covered
roads and limited visibilities... and use caution while driving.
The latest Wisconsin Road conditions can be obtained by calling
511.